createdAt,value
2023-01-12T00:01:08.197Z,76.22
2023-01-12T00:03:34.566Z,76.16
2023-01-12T00:06:01.248Z,76.08
2023-01-12T00:08:27.627Z,75.51
2023-01-12T00:10:57.150Z,75.89
2023-01-12T00:13:23.515Z,76.11
2023-01-12T00:16:08.778Z,76.01
2023-01-12T00:18:35.214Z,75.96
2023-01-12T00:21:01.566Z,75.74
2023-01-12T00:23:29.233Z,75.56
2023-01-12T00:25:55.627Z,75.36
2023-01-12T00:28:22.049Z,74.50
2023-01-12T00:30:48.444Z,73.87
2023-01-12T00:33:14.836Z,74.12
2023-01-12T00:35:41.198Z,73.85
2023-01-12T00:38:07.576Z,73.74
2023-01-12T00:40:36.337Z,72.89
2023-01-12T00:43:21.913Z,72.77
2023-01-12T00:45:51.390Z,72.79
2023-01-12T00:48:17.797Z,71.68
2023-01-12T00:50:46.304Z,72.21
2023-01-12T00:53:13.378Z,72.14
2023-01-12T00:55:39.797Z,71.74
2023-01-12T00:58:06.199Z,72.20
2023-01-12T01:00:32.571Z,72.49
2023-01-12T01:02:58.966Z,72.15
2023-01-12T01:05:25.364Z,71.49
2023-01-12T01:07:51.702Z,72.03
2023-01-12T01:10:18.230Z,71.41
2023-01-12T01:12:44.647Z,71.96
2023-01-12T01:15:11.219Z,71.14
2023-01-12T01:17:37.581Z,71.38
2023-01-12T01:20:04.723Z,70.73
2023-01-12T01:22:31.050Z,70.74
2023-01-12T01:24:57.422Z,70.98
2023-01-12T01:27:23.851Z,70.62
2023-01-12T01:29:50.206Z,70.33
2023-01-12T01:32:16.589Z,69.61
2023-01-12T01:34:43.139Z,70.03
2023-01-12T01:37:09.652Z,69.87
2023-01-12T01:39:35.995Z,70.13
2023-01-12T01:42:02.373Z,70.20
2023-01-12T01:44:31.675Z,70.34
2023-01-12T01:47:00.842Z,69.89
2023-01-12T01:49:41.568Z,70.32
2023-01-12T01:52:24.427Z,69.79
2023-01-12T01:54:55.682Z,69.31
2023-01-12T01:57:26.435Z,69.46
2023-01-12T01:59:56.679Z,69.79
2023-01-12T02:02:25.429Z,69.43
2023-01-12T02:04:54.238Z,69.77
2023-01-12T02:07:20.695Z,69.44
2023-01-12T02:09:47.045Z,69.22
2023-01-12T02:12:32.985Z,68.90
2023-01-12T02:15:18.291Z,69.07
2023-01-12T02:18:10.486Z,68.80
2023-01-12T02:21:00.700Z,68.67
2023-01-12T02:23:57.707Z,68.95
2023-01-12T02:26:50.988Z,69.19
2023-01-12T02:29:40.110Z,69.30
2023-01-12T02:32:18.103Z,69.10
2023-01-12T02:34:55.038Z,69.93
2023-01-12T02:37:43.388Z,69.27
2023-01-12T02:40:21.458Z,69.53
2023-01-12T02:43:04.281Z,70.02
2023-01-12T02:45:39.811Z,69.89
2023-01-12T02:48:15.146Z,70.45
2023-01-12T02:51:05.712Z,69.66
2023-01-12T02:53:52.149Z,69.88
2023-01-12T02:56:24.223Z,70.14
2023-01-12T02:58:58.316Z,69.92
2023-01-12T03:01:27.187Z,69.71
2023-01-12T03:04:00.405Z,70.34
2023-01-12T03:06:38.705Z,69.74
2023-01-12T03:09:05.123Z,69.35
2023-01-12T03:11:31.615Z,69.53
2023-01-12T03:14:02.550Z,69.55
2023-01-12T03:16:33.451Z,69.23
2023-01-12T03:19:09.320Z,69.78
2023-01-12T03:21:40.147Z,69.23
2023-01-12T03:24:11.005Z,69.29
2023-01-12T03:26:41.921Z,69.41
2023-01-12T03:29:25.539Z,68.77
2023-01-12T03:31:52.319Z,69.19
2023-01-12T03:34:18.949Z,68.49
2023-01-12T03:37:10.350Z,68.27
2023-01-12T03:39:43.155Z,68.46
2023-01-12T03:42:22.237Z,68.88
2023-01-12T03:44:56.477Z,68.69
2023-01-12T03:47:26.991Z,68.58
2023-01-12T03:50:03.450Z,68.57
2023-01-12T03:52:31.034Z,68.36
2023-01-12T03:54:59.476Z,68.15
2023-01-12T03:57:26.677Z,67.90
2023-01-12T03:59:53.769Z,67.77
2023-01-12T04:02:20.382Z,67.59
2023-01-12T04:04:46.802Z,67.78
2023-01-12T04:07:13.211Z,67.12
2023-01-12T04:09:39.576Z,67.34
2023-01-12T04:12:11.923Z,67.29
2023-01-12T04:14:40.053Z,67.24
2023-01-12T04:17:08.009Z,66.89
2023-01-12T04:19:34.364Z,66.73
2023-01-12T04:22:19.354Z,66.86
2023-01-12T04:24:45.980Z,67.21
2023-01-12T04:27:12.410Z,66.77
2023-01-12T04:29:38.812Z,66.24
2023-01-12T04:32:05.547Z,65.83
2023-01-12T04:34:31.991Z,66.58
2023-01-12T04:36:58.352Z,66.22
2023-01-12T04:39:24.788Z,67.09
2023-01-12T04:41:51.166Z,66.69
2023-01-12T04:44:17.572Z,66.74
2023-01-12T04:46:43.944Z,66.36
2023-01-12T04:49:10.341Z,66.87
2023-01-12T04:51:36.708Z,66.33
2023-01-12T04:54:03.111Z,67.30
2023-01-12T04:56:31.021Z,67.07
2023-01-12T04:59:01.338Z,67.12
2023-01-12T05:01:29.436Z,66.85
2023-01-12T05:03:57.960Z,67.50
2023-01-12T05:06:24.740Z,67.52
2023-01-12T05:09:09.976Z,67.32
2023-01-12T05:11:36.332Z,67.57
2023-01-12T05:14:03.689Z,67.84
2023-01-12T05:16:30.326Z,68.17
2023-01-12T05:18:57.052Z,68.00
2023-01-12T05:21:24.397Z,68.52
2023-01-12T05:23:53.552Z,67.85
2023-01-12T05:26:20.322Z,67.96
2023-01-12T05:28:50.958Z,67.73
2023-01-12T05:31:19.416Z,67.95
2023-01-12T05:33:46.241Z,68.31
2023-01-12T05:36:14.700Z,68.13
2023-01-12T05:38:41.134Z,68.22
2023-01-12T05:41:10.166Z,68.30
2023-01-12T05:43:51.528Z,68.44
2023-01-12T05:46:22.902Z,68.44
2023-01-12T05:48:50.120Z,68.73
2023-01-12T05:51:18.804Z,68.34
2023-01-12T05:53:45.560Z,68.33
2023-01-12T05:56:17.796Z,67.97
2023-01-12T05:58:52.818Z,68.70
2023-01-12T06:01:19.859Z,68.02
2023-01-12T06:03:54.034Z,68.00
2023-01-12T06:06:21.887Z,68.23
2023-01-12T06:08:50.648Z,68.45
2023-01-12T06:11:37.707Z,68.03
2023-01-12T06:14:04.979Z,68.63
2023-01-12T06:16:31.698Z,68.15
2023-01-12T06:18:58.208Z,68.58
2023-01-12T06:21:24.832Z,68.64
2023-01-12T06:23:51.895Z,68.01
2023-01-12T06:26:18.277Z,68.12
2023-01-12T06:28:44.708Z,67.71
2023-01-12T06:31:13.017Z,68.52
2023-01-12T06:33:40.068Z,68.39
2023-01-12T06:36:06.958Z,68.45
2023-01-12T06:38:35.148Z,68.61
2023-01-12T06:41:06.631Z,68.67
2023-01-12T06:43:33.244Z,68.46
2023-01-12T06:45:59.899Z,68.38
2023-01-12T06:48:26.369Z,68.98
2023-01-12T06:51:05.800Z,68.29
2023-01-12T06:53:32.193Z,68.71
2023-01-12T06:55:58.576Z,68.92
2023-01-12T06:58:24.949Z,68.49
2023-01-12T07:00:51.451Z,68.96
2023-01-12T07:03:19.106Z,68.67
2023-01-12T07:05:46.118Z,68.81
2023-01-12T07:08:15.973Z,68.75
2023-01-12T07:10:42.838Z,68.84
2023-01-12T07:13:09.205Z,69.03
2023-01-12T07:15:35.648Z,68.43
2023-01-12T07:18:02.281Z,68.85
2023-01-12T07:20:28.754Z,68.92
2023-01-12T07:22:55.993Z,68.55
2023-01-12T07:25:23.126Z,68.43
2023-01-12T07:27:51.694Z,68.66
2023-01-12T07:30:21.802Z,68.78
2023-01-12T07:32:49.372Z,68.40
2023-01-12T07:35:16.553Z,68.34
2023-01-12T07:37:50.485Z,67.95
2023-01-12T07:40:17.504Z,68.18
2023-01-12T07:42:43.847Z,68.26
2023-01-12T07:45:10.730Z,67.76
2023-01-12T07:47:37.111Z,67.77
2023-01-12T07:50:04.096Z,67.23
2023-01-12T07:52:30.920Z,67.74
2023-01-12T07:54:57.587Z,67.32
2023-01-12T07:57:24.201Z,67.51
2023-01-12T07:59:50.580Z,67.73
2023-01-12T08:02:17.140Z,67.05
2023-01-12T08:04:44.541Z,67.08
2023-01-12T08:07:11.381Z,67.38
2023-01-12T08:09:37.926Z,67.06
2023-01-12T08:12:05.984Z,66.36
2023-01-12T08:14:37.224Z,67.30
2023-01-12T08:17:08.032Z,66.79
2023-01-12T08:19:40.881Z,66.63
2023-01-12T08:22:12.555Z,66.85
2023-01-12T08:24:48.160Z,66.78
2023-01-12T08:27:18.298Z,66.44
2023-01-12T08:29:48.578Z,66.13
2023-01-12T08:32:18.353Z,65.90
2023-01-12T08:34:48.603Z,65.71
2023-01-12T08:37:18.697Z,66.05
2023-01-12T08:39:45.764Z,65.76
2023-01-12T08:42:12.552Z,65.48
2023-01-12T08:44:39.010Z,66.07
2023-01-12T08:47:16.002Z,65.56
2023-01-12T08:49:42.367Z,65.41
2023-01-12T08:52:09.009Z,65.48
2023-01-12T08:54:36.042Z,64.92
2023-01-12T08:57:02.406Z,64.95
2023-01-12T08:59:28.758Z,64.92
2023-01-12T09:01:55.244Z,65.46
2023-01-12T09:04:21.876Z,65.34
2023-01-12T09:06:48.640Z,65.19
2023-01-12T09:09:17.261Z,65.20
2023-01-12T09:11:44.467Z,65.00
2023-01-12T09:14:12.401Z,64.91
2023-01-12T09:16:39.415Z,64.61
2023-01-12T09:19:06.191Z,64.88
2023-01-12T09:21:35.710Z,64.54
2023-01-12T09:24:02.036Z,64.23
2023-01-12T09:26:32.158Z,64.15
2023-01-12T09:29:04.264Z,64.26
2023-01-12T09:31:33.106Z,64.55
2023-01-12T09:34:00.117Z,64.52
2023-01-12T09:36:28.789Z,64.10
2023-01-12T09:38:55.687Z,64.51
2023-01-12T09:41:49.956Z,63.78
2023-01-12T09:44:36.870Z,63.51
2023-01-12T09:47:07.610Z,63.64
2023-01-12T09:49:40.142Z,63.33
2023-01-12T09:52:24.635Z,62.51
2023-01-12T09:54:52.981Z,63.07
2023-01-12T09:57:57.110Z,62.62
2023-01-12T10:00:23.655Z,62.84
2023-01-12T10:02:54.960Z,62.40
2023-01-12T10:05:39.851Z,62.48
2023-01-12T10:08:14.937Z,62.94
2023-01-12T10:10:49.853Z,63.29
2023-01-12T10:13:16.955Z,63.43
2023-01-12T10:15:51.457Z,62.88
2023-01-12T10:18:26.881Z,62.94
2023-01-12T10:20:53.894Z,62.51
2023-01-12T10:23:24.630Z,62.92
2023-01-12T10:26:02.612Z,62.28
2023-01-12T10:28:33.197Z,62.82
2023-01-12T10:31:00.546Z,62.76
2023-01-12T10:33:29.828Z,62.29
2023-01-12T10:36:01.324Z,62.09
2023-01-12T10:38:31.301Z,62.37
2023-01-12T10:41:17.178Z,62.34
2023-01-12T10:43:46.829Z,62.07
2023-01-12T10:46:21.378Z,61.88
2023-01-12T10:48:54.264Z,62.19
2023-01-12T10:51:28.477Z,62.00
2023-01-12T10:54:09.106Z,62.15
2023-01-12T10:56:39.315Z,62.26
2023-01-12T10:59:21.481Z,62.20
2023-01-12T11:01:51.127Z,62.29
2023-01-12T11:04:23.635Z,62.98
2023-01-12T11:07:05.001Z,62.88
2023-01-12T11:09:32.009Z,62.59
2023-01-12T11:12:03.626Z,63.22
2023-01-12T11:14:33.163Z,63.41
2023-01-12T11:17:19.684Z,63.48
2023-01-12T11:19:48.711Z,63.61
2023-01-12T11:22:27.420Z,63.53
2023-01-12T11:25:11.521Z,63.80
2023-01-12T11:27:43.903Z,64.14
2023-01-12T11:30:20.862Z,63.97
2023-01-12T11:32:57.648Z,64.28
2023-01-12T11:35:37.146Z,64.19
2023-01-12T11:38:11.053Z,64.40
2023-01-12T11:40:38.834Z,64.46
2023-01-12T11:43:41.967Z,64.89
2023-01-12T11:46:18.951Z,65.34
2023-01-12T11:48:55.045Z,66.03
2023-01-12T11:51:21.486Z,67.13
2023-01-12T11:53:47.844Z,67.89
2023-01-12T11:56:23.521Z,68.54
2023-01-12T11:58:54.861Z,68.58
2023-01-12T12:01:35.659Z,68.73
2023-01-12T12:04:21.360Z,68.93
2023-01-12T12:07:07.898Z,69.17
2023-01-12T12:09:49.546Z,69.13
2023-01-12T12:12:39.534Z,69.06
2023-01-12T12:15:25.625Z,70.51
2023-01-12T12:18:19.983Z,71.01
2023-01-12T12:20:49.463Z,70.79
2023-01-12T12:23:54.557Z,71.76
2023-01-12T12:26:30.713Z,72.11
2023-01-12T12:29:12.066Z,72.48
2023-01-12T12:31:57.267Z,73.15
2023-01-12T12:35:01.345Z,73.38
2023-01-12T12:37:41.698Z,74.46
2023-01-12T12:40:27.057Z,74.55
2023-01-12T12:43:28.867Z,75.04
2023-01-12T12:46:28.067Z,76.04
2023-01-12T12:49:05.291Z,76.55
2023-01-12T12:51:34.648Z,77.45
2023-01-12T12:54:03.995Z,77.44
2023-01-12T12:56:33.277Z,77.84
2023-01-12T12:59:04.187Z,78.15
2023-01-12T13:01:30.587Z,77.97
2023-01-12T13:03:59.166Z,77.63
2023-01-12T13:06:35.648Z,77.60
2023-01-12T13:09:22.230Z,78.58
2023-01-12T13:12:08.817Z,78.33
2023-01-12T13:14:36.763Z,78.70
2023-01-12T13:17:25.881Z,77.82
2023-01-12T13:20:08.294Z,78.38
2023-01-12T13:22:39.919Z,77.82
2023-01-12T13:25:15.603Z,77.69
2023-01-12T13:28:00.832Z,78.02
2023-01-12T13:30:30.302Z,78.55
2023-01-12T13:33:16.696Z,78.12
2023-01-12T13:35:46.305Z,79.23
2023-01-12T13:38:20.191Z,79.23
2023-01-12T13:40:55.933Z,79.12
2023-01-12T13:43:34.257Z,78.67
2023-01-12T13:46:12.650Z,79.06
2023-01-12T13:48:44.446Z,79.42
2023-01-12T13:51:22.748Z,79.36
2023-01-12T13:54:04.213Z,78.95
2023-01-12T13:56:31.373Z,78.85
2023-01-12T13:59:03.814Z,79.06
2023-01-12T14:01:33.674Z,79.02
2023-01-12T14:04:25.439Z,78.07
2023-01-12T14:07:23.071Z,79.26
2023-01-12T14:10:19.086Z,79.24
2023-01-12T14:13:07.575Z,79.28
2023-01-12T14:15:56.364Z,78.67
2023-01-12T14:18:29.164Z,79.18
2023-01-12T14:20:58.134Z,79.38
2023-01-12T14:23:28.739Z,78.56
2023-01-12T14:26:03.976Z,78.65
2023-01-12T14:28:31.264Z,77.98
2023-01-12T14:30:58.231Z,78.75
2023-01-12T14:33:30.654Z,78.99
2023-01-12T14:36:06.856Z,79.57
2023-01-12T14:38:36.954Z,79.01
2023-01-12T14:41:27.558Z,79.01
2023-01-12T14:44:13.166Z,79.59
2023-01-12T14:46:48.075Z,79.25
2023-01-12T14:49:31.071Z,78.50
2023-01-12T14:52:16.312Z,78.61
2023-01-12T14:54:43.415Z,78.53
2023-01-12T14:57:27.562Z,79.28
2023-01-12T14:59:54.158Z,78.66
2023-01-12T15:02:31.050Z,78.48
2023-01-12T15:05:09.535Z,79.48
2023-01-12T15:07:53.716Z,78.83
2023-01-12T15:10:20.057Z,78.50
2023-01-12T15:12:54.067Z,78.45
2023-01-12T15:15:22.206Z,78.06
2023-01-12T15:18:08.756Z,78.35
2023-01-12T15:20:56.878Z,77.18
2023-01-12T15:23:44.782Z,77.33
2023-01-12T15:26:11.160Z,78.19
2023-01-12T15:28:37.574Z,77.61
2023-01-12T15:31:03.968Z,77.12
2023-01-12T15:33:30.620Z,76.80
2023-01-12T15:35:58.221Z,76.73
2023-01-12T15:38:28.272Z,76.29
2023-01-12T15:40:54.755Z,76.00
2023-01-12T15:43:21.111Z,75.52
2023-01-12T15:45:47.786Z,75.89
2023-01-12T15:48:14.407Z,75.92
2023-01-12T15:50:44.153Z,76.22
2023-01-12T15:53:17.267Z,76.11
2023-01-12T15:55:43.669Z,76.25
2023-01-12T15:58:10.164Z,75.81
2023-01-12T16:00:37.018Z,75.42
2023-01-12T16:03:04.197Z,75.02
2023-01-12T16:05:30.595Z,75.36
2023-01-12T16:07:57.181Z,75.97
2023-01-12T16:10:24.104Z,76.14
2023-01-12T16:12:50.652Z,76.58
2023-01-12T16:15:22.819Z,76.30
2023-01-12T16:17:50.148Z,76.34
2023-01-12T16:20:19.094Z,75.83
2023-01-12T16:22:46.840Z,76.46
2023-01-12T16:25:14.252Z,76.30
2023-01-12T16:27:40.696Z,76.21
2023-01-12T16:30:12.347Z,76.21
2023-01-12T16:32:38.817Z,76.42
2023-01-12T16:35:05.395Z,75.91
2023-01-12T16:37:33.292Z,75.88
2023-01-12T16:40:00.909Z,76.63
2023-01-12T16:42:27.922Z,76.18
2023-01-12T16:44:54.407Z,76.43
2023-01-12T16:47:20.927Z,76.56
2023-01-12T16:49:49.390Z,76.47
2023-01-12T16:52:17.549Z,75.81
2023-01-12T16:54:44.026Z,75.46
2023-01-12T16:57:12.383Z,75.21
2023-01-12T16:59:39.084Z,75.36
2023-01-12T17:02:08.219Z,75.20
2023-01-12T17:04:36.886Z,75.22
2023-01-12T17:07:05.481Z,74.89
2023-01-12T17:09:34.540Z,75.19
2023-01-12T17:12:01.117Z,75.25
2023-01-12T17:14:28.254Z,74.47
2023-01-12T17:16:57.841Z,74.53
2023-01-12T17:19:27.645Z,74.04
2023-01-12T17:21:54.881Z,74.62
2023-01-12T17:24:22.172Z,74.78
2023-01-12T17:26:51.201Z,74.97
2023-01-12T17:29:18.056Z,74.85
2023-01-12T17:31:45.050Z,74.81
2023-01-12T17:34:13.121Z,74.56
2023-01-12T17:36:40.098Z,74.81
2023-01-12T17:39:06.747Z,75.06
2023-01-12T17:41:51.745Z,74.74
2023-01-12T17:44:18.264Z,74.62
2023-01-12T17:46:45.219Z,74.87
2023-01-12T17:49:12.464Z,74.75
2023-01-12T17:51:39.759Z,74.49
2023-01-12T17:54:07.889Z,74.67
2023-01-12T17:56:35.423Z,74.54
2023-01-12T17:59:03.103Z,74.33
2023-01-12T18:01:32.004Z,74.48
2023-01-12T18:03:59.769Z,74.17
2023-01-12T18:06:27.233Z,74.35
2023-01-12T18:08:56.418Z,73.27
2023-01-12T18:11:23.642Z,73.49
2023-01-12T18:13:50.082Z,73.24
2023-01-12T18:16:17.065Z,72.73
2023-01-12T18:18:44.114Z,72.96
2023-01-12T18:21:14.132Z,72.71
2023-01-12T18:23:43.004Z,72.45
2023-01-12T18:26:12.388Z,72.40
2023-01-12T18:28:38.823Z,72.80
2023-01-12T18:31:10.780Z,73.09
2023-01-12T18:33:37.822Z,73.01
2023-01-12T18:36:31.331Z,73.10
2023-01-12T18:38:57.726Z,73.40
2023-01-12T18:41:42.793Z,73.15
2023-01-12T18:44:09.647Z,73.97
2023-01-12T18:47:00.327Z,73.86
2023-01-12T18:49:29.214Z,73.75
2023-01-12T18:52:14.552Z,73.42
2023-01-12T18:54:45.252Z,74.10
2023-01-12T18:57:13.920Z,73.82
2023-01-12T18:59:41.904Z,73.97
2023-01-12T19:02:11.624Z,74.36
2023-01-12T19:04:50.088Z,74.26
2023-01-12T19:07:17.457Z,74.33
2023-01-12T19:09:43.948Z,74.34
2023-01-12T19:12:10.300Z,74.37
2023-01-12T19:14:55.167Z,73.78
2023-01-12T19:17:27.386Z,73.62
2023-01-12T19:19:54.340Z,73.32
2023-01-12T19:22:39.574Z,73.15
2023-01-12T19:25:25.500Z,73.27
2023-01-12T19:28:10.450Z,73.10
2023-01-12T19:30:38.122Z,73.23
2023-01-12T19:33:22.484Z,72.43
2023-01-12T19:35:48.937Z,72.47
2023-01-12T19:38:15.472Z,72.14
2023-01-12T19:40:49.573Z,72.54
2023-01-12T19:43:20.286Z,72.51
2023-01-12T19:45:48.613Z,72.74
2023-01-12T19:48:17.049Z,72.67
2023-01-12T19:50:44.840Z,72.03
2023-01-12T19:53:18.556Z,72.72
2023-01-12T19:55:45.660Z,72.36
2023-01-12T19:58:12.807Z,71.99
2023-01-12T20:00:43.356Z,72.02
2023-01-12T20:03:20.981Z,71.53
2023-01-12T20:05:50.961Z,71.43
2023-01-12T20:08:22.689Z,71.36
2023-01-12T20:10:54.175Z,71.39
2023-01-12T20:13:20.569Z,71.43
2023-01-12T20:15:48.820Z,71.25
2023-01-12T20:18:16.290Z,72.26
2023-01-12T20:20:43.167Z,72.59
2023-01-12T20:23:10.992Z,73.00
2023-01-12T20:25:39.376Z,72.64
2023-01-12T20:28:06.259Z,72.94
2023-01-12T20:30:37.965Z,71.80
2023-01-12T20:33:06.068Z,71.58
2023-01-12T20:35:32.850Z,71.26
2023-01-12T20:37:59.255Z,70.69
2023-01-12T20:40:25.675Z,71.07
2023-01-12T20:42:52.110Z,70.76
2023-01-12T20:45:19.014Z,70.50
2023-01-12T20:47:45.517Z,70.14
2023-01-12T20:50:14.164Z,70.49
2023-01-12T20:52:41.505Z,70.56
2023-01-12T20:55:08.463Z,69.88
2023-01-12T20:57:38.644Z,70.01
2023-01-12T21:00:09.704Z,68.88
2023-01-12T21:02:40.520Z,69.25
2023-01-12T21:05:07.859Z,69.16
2023-01-12T21:07:34.273Z,68.48
2023-01-12T21:10:00.709Z,68.92
2023-01-12T21:12:27.782Z,68.25
2023-01-12T21:14:54.582Z,68.67
2023-01-12T21:17:21.288Z,69.25
2023-01-12T21:19:47.902Z,68.45
2023-01-12T21:22:14.298Z,68.30
2023-01-12T21:24:40.736Z,68.23
2023-01-12T21:27:07.108Z,68.16
2023-01-12T21:29:34.120Z,68.43
2023-01-12T21:32:01.279Z,67.92
2023-01-12T21:34:27.901Z,67.95
2023-01-12T21:36:54.329Z,68.11
2023-01-12T21:39:21.947Z,68.04
2023-01-12T21:42:06.927Z,67.63
2023-01-12T21:44:33.354Z,68.06
2023-01-12T21:46:59.968Z,68.18
2023-01-12T21:49:26.396Z,68.33
2023-01-12T21:51:52.785Z,67.88
2023-01-12T21:54:19.206Z,68.53
2023-01-12T21:56:45.562Z,68.25
2023-01-12T21:59:12.552Z,68.03
2023-01-12T22:01:39.136Z,67.72
2023-01-12T22:04:05.659Z,67.37
2023-01-12T22:06:32.123Z,67.13
2023-01-12T22:08:58.851Z,67.29
2023-01-12T22:11:25.430Z,66.64
2023-01-12T22:13:51.846Z,66.99
2023-01-12T22:16:18.434Z,67.05
2023-01-12T22:18:49.554Z,66.81
2023-01-12T22:21:17.796Z,66.61
2023-01-12T22:23:44.540Z,66.69
2023-01-12T22:26:12.898Z,66.58
2023-01-12T22:28:41.375Z,66.36
2023-01-12T22:31:13.911Z,66.19
2023-01-12T22:33:44.600Z,66.45
2023-01-12T22:36:10.968Z,66.94
2023-01-12T22:38:37.339Z,66.65
2023-01-12T22:41:08.383Z,66.64
2023-01-12T22:43:40.642Z,66.64
2023-01-12T22:46:19.083Z,66.59
2023-01-12T22:48:49.672Z,66.16
2023-01-12T22:51:17.312Z,66.68
2023-01-12T22:53:44.279Z,66.85
2023-01-12T22:56:12.031Z,67.46
2023-01-12T22:58:39.610Z,66.97
2023-01-12T23:01:09.175Z,66.88
2023-01-12T23:03:37.179Z,66.49
2023-01-12T23:06:05.049Z,67.04
2023-01-12T23:08:32.359Z,67.35
2023-01-12T23:11:07.669Z,67.32
2023-01-12T23:13:35.345Z,66.97
2023-01-12T23:16:05.266Z,67.42
2023-01-12T23:18:33.546Z,67.15
2023-01-12T23:21:04.237Z,67.04
2023-01-12T23:23:31.098Z,67.04
2023-01-12T23:26:03.106Z,67.04
2023-01-12T23:28:30.253Z,67.26
2023-01-12T23:31:05.601Z,66.95
2023-01-12T23:33:32.437Z,67.42
2023-01-12T23:36:08.184Z,66.83
2023-01-12T23:38:35.133Z,67.38
2023-01-12T23:41:21.395Z,66.95
2023-01-12T23:43:49.893Z,66.83
2023-01-12T23:46:17.484Z,66.48
2023-01-12T23:48:44.085Z,66.81
2023-01-12T23:51:10.792Z,67.09
2023-01-12T23:53:37.311Z,66.70
2023-01-12T23:56:06.305Z,67.01
2023-01-12T23:58:33.751Z,66.70
